createdAt,value
2022-12-31T00:02:20.307Z,6.22
2022-12-31T00:07:21.783Z,4.95
2022-12-31T00:12:23.279Z,6.20
2022-12-31T00:17:24.726Z,6.72
2022-12-31T00:22:26.194Z,6.43
2022-12-31T00:27:27.639Z,4.72
2022-12-31T00:32:29.105Z,5.78
2022-12-31T00:37:30.549Z,6.55
2022-12-31T00:42:31.980Z,6.63
2022-12-31T00:47:33.441Z,6.53
2022-12-31T00:52:34.879Z,6.25
2022-12-31T00:57:36.342Z,6.05
2022-12-31T01:02:38.000Z,5.10
2022-12-31T01:07:39.621Z,5.80
2022-12-31T01:12:41.058Z,5.75
2022-12-31T01:17:42.482Z,6.32
2022-12-31T01:22:43.933Z,5.78
2022-12-31T01:27:45.398Z,6.35
2022-12-31T01:32:46.826Z,6.45
2022-12-31T01:37:48.256Z,5.13
2022-12-31T01:42:49.677Z,6.32
2022-12-31T01:47:51.156Z,4.63
2022-12-31T01:52:52.642Z,3.42
2022-12-31T01:57:54.085Z,3.42
2022-12-31T02:02:55.529Z,3.15
2022-12-31T02:07:56.997Z,2.92
2022-12-31T02:12:58.420Z,3.20
2022-12-31T02:17:59.856Z,3.63
2022-12-31T02:23:01.271Z,3.50
2022-12-31T02:28:02.793Z,3.28
2022-12-31T02:33:04.270Z,3.40
2022-12-31T02:38:05.708Z,3.60
2022-12-31T02:43:07.255Z,3.83
2022-12-31T02:48:08.712Z,3.35
2022-12-31T02:53:10.176Z,3.40
2022-12-31T02:58:11.639Z,3.50
2022-12-31T03:03:13.116Z,3.15
2022-12-31T03:08:14.552Z,3.40
2022-12-31T03:13:15.974Z,3.92
2022-12-31T03:18:17.400Z,3.38
2022-12-31T03:23:18.833Z,3.88
2022-12-31T03:28:20.334Z,3.83
2022-12-31T03:33:21.784Z,3.40
2022-12-31T03:38:23.244Z,4.30
2022-12-31T03:43:24.721Z,3.70
2022-12-31T03:48:26.215Z,4.15
2022-12-31T03:53:27.702Z,3.65
2022-12-31T03:58:29.146Z,4.00
2022-12-31T04:03:30.626Z,3.78
2022-12-31T04:08:32.375Z,4.20
2022-12-31T04:13:33.841Z,3.60
2022-12-31T04:18:35.310Z,4.13
2022-12-31T04:23:36.743Z,3.80
2022-12-31T04:28:38.190Z,3.20
2022-12-31T04:33:39.660Z,3.30
2022-12-31T04:38:41.142Z,3.10
2022-12-31T04:43:42.603Z,2.80
2022-12-31T04:48:44.036Z,3.22
2022-12-31T04:53:45.473Z,3.00
2022-12-31T04:58:46.939Z,3.10
2022-12-31T05:03:48.409Z,2.97
2022-12-31T05:08:49.838Z,2.80
2022-12-31T05:13:51.259Z,2.35
2022-12-31T05:18:52.697Z,2.50
2022-12-31T05:23:54.173Z,2.17
2022-12-31T05:28:55.600Z,2.70
2022-12-31T05:33:57.061Z,2.30
2022-12-31T05:38:58.529Z,2.45
2022-12-31T05:43:59.962Z,2.20
2022-12-31T05:49:01.432Z,2.10
2022-12-31T05:54:02.915Z,1.60
2022-12-31T05:59:04.402Z,2.10
2022-12-31T06:04:05.971Z,2.28
2022-12-31T06:09:07.656Z,2.13
2022-12-31T06:14:09.125Z,2.25
2022-12-31T06:19:10.591Z,2.20
2022-12-31T06:24:12.073Z,2.47
2022-12-31T06:29:13.546Z,2.67
2022-12-31T06:34:15.016Z,2.22
2022-12-31T06:39:16.444Z,2.00
2022-12-31T06:44:17.914Z,2.40
2022-12-31T06:49:19.453Z,2.70
2022-12-31T06:54:20.927Z,2.53
2022-12-31T06:59:22.364Z,2.75
2022-12-31T07:04:23.832Z,1.95
2022-12-31T07:09:25.274Z,2.40
2022-12-31T07:14:26.738Z,2.38
2022-12-31T07:19:28.207Z,2.47
2022-12-31T07:24:29.669Z,2.35
2022-12-31T07:29:31.156Z,2.22
2022-12-31T07:34:32.612Z,1.83
2022-12-31T07:39:34.081Z,2.13
2022-12-31T07:44:35.573Z,1.98
2022-12-31T07:49:37.033Z,1.60
2022-12-31T07:54:38.489Z,1.67
2022-12-31T07:59:39.959Z,1.75
2022-12-31T08:04:41.384Z,1.40
2022-12-31T08:09:42.830Z,1.30
2022-12-31T08:14:44.353Z,1.20
2022-12-31T08:19:45.906Z,1.17
2022-12-31T08:24:47.357Z,1.20
2022-12-31T08:29:48.819Z,1.10
2022-12-31T08:34:50.258Z,1.48
2022-12-31T08:39:51.716Z,1.45
2022-12-31T08:44:53.162Z,1.30
2022-12-31T08:49:54.637Z,1.30
2022-12-31T08:54:56.105Z,1.58
2022-12-31T08:59:57.565Z,1.20
2022-12-31T09:04:59.032Z,1.38
2022-12-31T09:10:00.495Z,1.30
2022-12-31T09:15:01.926Z,1.50
2022-12-31T09:20:03.370Z,1.23
2022-12-31T09:25:04.831Z,1.33
2022-12-31T09:30:06.303Z,1.30
2022-12-31T09:35:07.738Z,1.20
2022-12-31T09:40:09.204Z,1.30
2022-12-31T09:45:10.708Z,1.42
2022-12-31T09:50:12.200Z,1.50
2022-12-31T09:55:13.901Z,1.70
2022-12-31T10:00:15.365Z,2.03
2022-12-31T10:05:16.816Z,1.92
2022-12-31T10:10:18.510Z,1.77
2022-12-31T10:15:20.069Z,1.90
2022-12-31T10:20:21.773Z,1.90
2022-12-31T10:25:37.717Z,2.10
2022-12-31T10:30:40.802Z,2.05
2022-12-31T10:35:42.437Z,1.92
2022-12-31T10:40:44.115Z,1.90
2022-12-31T10:45:46.147Z,1.70
2022-12-31T10:50:47.834Z,2.03
2022-12-31T10:55:49.305Z,1.80
2022-12-31T11:00:52.279Z,1.67
2022-12-31T11:05:53.818Z,1.70
2022-12-31T11:10:55.264Z,1.90
2022-12-31T11:15:56.906Z,2.03
2022-12-31T11:20:58.391Z,1.80
2022-12-31T11:25:59.991Z,1.80
2022-12-31T11:31:01.530Z,2.00
2022-12-31T11:36:03.126Z,2.10
2022-12-31T11:41:04.627Z,1.80
2022-12-31T11:46:06.156Z,2.00
2022-12-31T11:51:07.627Z,1.60
2022-12-31T11:56:09.146Z,1.90
2022-12-31T12:01:10.669Z,1.60
2022-12-31T12:06:12.143Z,2.00
2022-12-31T12:11:13.618Z,1.83
2022-12-31T12:16:15.173Z,1.90
2022-12-31T12:21:16.726Z,1.90
2022-12-31T12:26:18.197Z,2.10
2022-12-31T12:31:19.736Z,2.10
2022-12-31T12:36:21.236Z,2.30
2022-12-31T12:41:22.719Z,2.08
2022-12-31T12:46:24.385Z,2.17
2022-12-31T12:51:25.850Z,2.10
2022-12-31T12:56:27.348Z,2.03
2022-12-31T13:01:28.929Z,2.13
2022-12-31T13:06:30.424Z,2.13
2022-12-31T13:11:31.917Z,2.00
2022-12-31T13:16:33.402Z,2.10
2022-12-31T13:21:34.918Z,2.22
2022-12-31T13:26:36.380Z,2.20
2022-12-31T13:31:37.903Z,2.22
2022-12-31T13:36:39.435Z,2.20
2022-12-31T13:41:40.902Z,2.30
2022-12-31T13:46:42.346Z,2.30
2022-12-31T13:51:43.835Z,2.20
2022-12-31T13:56:45.271Z,2.05
2022-12-31T14:01:46.754Z,2.20
2022-12-31T14:06:48.380Z,2.25
2022-12-31T14:11:49.976Z,2.35
2022-12-31T14:16:51.759Z,1.92
2022-12-31T14:21:53.345Z,2.67
2022-12-31T14:26:54.917Z,2.38
2022-12-31T14:31:56.480Z,2.60
2022-12-31T14:36:57.955Z,2.40
2022-12-31T14:41:59.498Z,2.45
2022-12-31T14:47:00.949Z,2.95
2022-12-31T14:52:02.583Z,2.40
2022-12-31T14:57:04.096Z,2.60
2022-12-31T15:02:05.598Z,2.40
2022-12-31T15:07:07.419Z,2.20
2022-12-31T15:12:08.922Z,2.50
2022-12-31T15:17:10.469Z,2.80
2022-12-31T15:22:11.966Z,2.60
2022-12-31T15:27:13.473Z,2.47
2022-12-31T15:32:15.147Z,2.58
2022-12-31T15:37:19.111Z,2.80
2022-12-31T15:42:37.819Z,2.35
2022-12-31T15:47:40.347Z,2.70
2022-12-31T15:52:41.846Z,2.88
2022-12-31T15:57:44.386Z,2.60
2022-12-31T16:02:45.923Z,2.63
2022-12-31T16:07:47.492Z,2.92
2022-12-31T16:12:49.025Z,2.83
2022-12-31T16:17:50.489Z,3.05
2022-12-31T16:22:52.011Z,2.80
2022-12-31T16:27:53.478Z,2.88
2022-12-31T16:32:55.012Z,3.08
2022-12-31T16:37:56.547Z,2.60
2022-12-31T16:42:58.032Z,3.20
2022-12-31T16:47:59.531Z,2.90
2022-12-31T16:53:01.162Z,3.30
2022-12-31T16:58:02.813Z,3.05
2022-12-31T17:03:04.349Z,3.10
2022-12-31T17:08:05.799Z,2.92
2022-12-31T17:18:28.872Z,3.30
2022-12-31T17:23:30.387Z,3.03
2022-12-31T17:28:31.850Z,2.78
2022-12-31T17:33:33.352Z,3.10
2022-12-31T17:38:34.857Z,2.92
2022-12-31T17:43:36.362Z,2.70
2022-12-31T17:48:37.834Z,2.85
2022-12-31T17:53:39.448Z,2.85
2022-12-31T17:58:41.136Z,2.90
2022-12-31T18:03:42.700Z,2.42
2022-12-31T18:08:44.170Z,2.65
2022-12-31T18:13:45.699Z,2.30
2022-12-31T18:18:47.155Z,2.22
2022-12-31T18:23:48.623Z,2.35
2022-12-31T18:28:50.073Z,2.50
2022-12-31T18:33:51.521Z,2.10
2022-12-31T18:38:53.008Z,2.38
2022-12-31T18:43:54.481Z,2.30
2022-12-31T18:48:55.987Z,2.25
2022-12-31T18:53:57.508Z,2.47
2022-12-31T18:58:58.969Z,2.58
2022-12-31T19:04:00.645Z,2.28
2022-12-31T19:09:02.106Z,2.35
2022-12-31T19:14:03.571Z,2.58
2022-12-31T19:19:08.612Z,2.30
2022-12-31T19:24:10.317Z,2.40
2022-12-31T19:29:11.771Z,2.30
2022-12-31T19:34:13.396Z,2.72
2022-12-31T19:39:14.872Z,2.35
2022-12-31T19:44:16.334Z,2.90
2022-12-31T19:49:17.818Z,2.80
2022-12-31T19:54:19.297Z,2.88
2022-12-31T19:59:20.790Z,2.28
2022-12-31T20:04:22.222Z,2.60
2022-12-31T20:09:23.748Z,2.47
2022-12-31T20:14:25.239Z,2.47
2022-12-31T20:19:26.680Z,2.72
2022-12-31T20:24:28.177Z,2.47
2022-12-31T20:29:29.807Z,2.88
2022-12-31T20:34:31.284Z,3.13
2022-12-31T20:39:32.801Z,2.92
2022-12-31T20:44:34.271Z,2.45
2022-12-31T20:50:09.824Z,2.60
2022-12-31T20:54:57.117Z,2.60
2022-12-31T20:59:58.587Z,2.28
2022-12-31T21:05:00.206Z,2.50
2022-12-31T21:10:01.783Z,2.20
2022-12-31T21:15:03.226Z,2.42
2022-12-31T21:20:04.715Z,2.28
2022-12-31T21:25:06.195Z,2.30
2022-12-31T21:30:23.117Z,2.38
2022-12-31T21:35:43.493Z,2.92
2022-12-31T21:40:46.280Z,2.30
2022-12-31T21:45:47.749Z,2.60
2022-12-31T21:50:49.221Z,2.40
2022-12-31T21:55:50.880Z,3.20
2022-12-31T22:00:52.341Z,2.58
2022-12-31T22:05:53.825Z,2.47
2022-12-31T22:10:55.348Z,2.75
2022-12-31T22:16:03.972Z,2.70
2022-12-31T22:21:09.621Z,2.80
2022-12-31T22:26:15.366Z,3.03
2022-12-31T22:31:17.089Z,3.58
2022-12-31T22:36:18.614Z,2.70
2022-12-31T22:41:20.088Z,2.35
2022-12-31T22:46:21.600Z,2.55
2022-12-31T22:51:23.293Z,2.35
2022-12-31T22:56:24.723Z,2.72
2022-12-31T23:01:26.198Z,2.80
2022-12-31T23:06:27.732Z,3.40
2022-12-31T23:11:29.433Z,3.67
2022-12-31T23:16:30.976Z,5.00
2022-12-31T23:21:32.498Z,5.18
2022-12-31T23:26:33.967Z,3.30
2022-12-31T23:31:35.455Z,4.05
2022-12-31T23:36:36.941Z,4.35
2022-12-31T23:41:38.411Z,4.90
2022-12-31T23:46:39.900Z,4.00
2022-12-31T23:51:41.402Z,4.00
2022-12-31T23:56:42.844Z,3.67
